createdAt,value
2023-02-27T00:01:07.555Z,38.00
2023-02-27T00:03:36.319Z,38.00
2023-02-27T00:06:05.399Z,38.00
2023-02-27T00:08:34.071Z,38.00
2023-02-27T00:11:02.697Z,37.90
2023-02-27T00:13:32.745Z,37.90
2023-02-27T00:16:01.505Z,37.80
2023-02-27T00:18:30.331Z,37.80
2023-02-27T00:20:59.029Z,37.90
2023-02-27T00:23:28.114Z,37.90
2023-02-27T00:25:56.959Z,37.90
2023-02-27T00:28:25.689Z,38.60
2023-02-27T00:30:55.938Z,38.00
2023-02-27T00:33:24.786Z,37.80
2023-02-27T00:35:57.874Z,37.90
2023-02-27T00:38:26.647Z,37.70
2023-02-27T00:40:56.044Z,37.90
2023-02-27T00:43:24.755Z,37.80
2023-02-27T00:45:53.463Z,37.80
2023-02-27T00:48:24.446Z,37.80
2023-02-27T00:50:53.220Z,37.70
2023-02-27T00:53:21.882Z,37.90
2023-02-27T00:55:50.598Z,38.40
2023-02-27T00:58:19.412Z,37.80
2023-02-27T01:00:49.718Z,37.80
2023-02-27T01:03:18.386Z,37.70
2023-02-27T01:05:49.708Z,37.80
2023-02-27T01:08:20.288Z,37.70
2023-02-27T01:10:48.960Z,37.80
2023-02-27T01:13:17.643Z,37.80
2023-02-27T01:15:46.390Z,37.70
2023-02-27T01:18:15.131Z,37.80
2023-02-27T01:20:43.964Z,37.80
2023-02-27T01:23:16.348Z,37.70
2023-02-27T01:25:45.000Z,37.70
2023-02-27T01:28:13.674Z,37.70
2023-02-27T01:30:42.803Z,37.70
2023-02-27T01:33:11.457Z,37.70
2023-02-27T01:35:41.848Z,37.70
2023-02-27T01:38:11.902Z,37.80
2023-02-27T01:40:43.429Z,37.60
2023-02-27T01:43:16.860Z,37.60
2023-02-27T01:45:47.877Z,37.40
2023-02-27T01:48:21.720Z,37.50
2023-02-27T01:50:56.082Z,37.40
2023-02-27T01:53:26.630Z,37.60
2023-02-27T01:56:05.546Z,37.60
2023-02-27T01:58:34.416Z,37.40
2023-02-27T02:01:03.941Z,37.60
2023-02-27T02:03:39.058Z,37.70
2023-02-27T02:06:10.249Z,37.50
2023-02-27T02:08:44.105Z,37.80
2023-02-27T02:11:17.217Z,37.50
2023-02-27T02:14:10.771Z,37.50
2023-02-27T02:17:15.796Z,37.70
2023-02-27T02:20:41.954Z,37.30
2023-02-27T02:24:22.567Z,37.30
2023-02-27T02:27:00.124Z,37.30
2023-02-27T02:30:39.733Z,37.60
2023-02-27T02:33:51.229Z,37.30
2023-02-27T02:37:09.952Z,37.10
2023-02-27T02:40:05.127Z,37.40
2023-02-27T02:42:43.616Z,37.30
2023-02-27T02:45:18.552Z,37.40
2023-02-27T02:48:03.067Z,37.50
2023-02-27T02:50:41.887Z,37.30
2023-02-27T02:53:19.803Z,37.40
2023-02-27T02:55:55.125Z,37.50
2023-02-27T02:58:29.507Z,37.30
2023-02-27T03:01:05.335Z,37.40
2023-02-27T03:03:37.683Z,37.50
2023-02-27T03:06:12.144Z,37.50
2023-02-27T03:08:48.979Z,37.40
2023-02-27T03:11:19.348Z,37.30
2023-02-27T03:13:52.482Z,37.40
2023-02-27T03:16:27.538Z,37.30
2023-02-27T03:19:05.682Z,37.30
2023-02-27T03:21:40.548Z,37.20
2023-02-27T03:24:23.705Z,37.20
2023-02-27T03:26:59.507Z,37.20
2023-02-27T03:29:35.023Z,37.10
2023-02-27T03:32:10.765Z,37.70
2023-02-27T03:34:41.631Z,37.20
2023-02-27T03:37:26.614Z,37.20
2023-02-27T03:40:07.923Z,36.90
2023-02-27T03:42:44.384Z,37.10
2023-02-27T03:45:32.424Z,37.30
2023-02-27T03:48:01.664Z,37.20
2023-02-27T03:50:31.083Z,37.20
2023-02-27T03:53:00.127Z,37.40
2023-02-27T03:55:35.041Z,37.20
2023-02-27T03:58:05.382Z,37.10
2023-02-27T04:00:34.678Z,37.10
2023-02-27T04:03:04.249Z,37.20
2023-02-27T04:05:34.932Z,37.10
2023-02-27T04:08:38.656Z,37.20
2023-02-27T04:11:46.208Z,36.80
2023-02-27T04:14:41.960Z,36.80
2023-02-27T04:17:25.127Z,36.80
2023-02-27T04:20:27.069Z,36.80
2023-02-27T04:23:03.561Z,36.80
2023-02-27T04:25:44.784Z,36.90
2023-02-27T04:28:18.742Z,37.10
2023-02-27T04:31:00.247Z,37.10
2023-02-27T04:33:41.929Z,37.00
2023-02-27T04:36:18.136Z,37.00
2023-02-27T04:38:51.183Z,37.10
2023-02-27T04:41:26.654Z,37.10
2023-02-27T04:43:56.896Z,37.10
2023-02-27T04:46:30.179Z,37.20
2023-02-27T04:49:04.197Z,37.20
2023-02-27T04:51:40.992Z,37.20
2023-02-27T04:54:15.484Z,37.10
2023-02-27T04:56:49.367Z,37.10
2023-02-27T04:59:23.594Z,37.10
2023-02-27T05:01:58.867Z,37.10
2023-02-27T05:04:30.361Z,37.00
2023-02-27T05:07:01.835Z,37.20
2023-02-27T05:09:38.022Z,37.10
2023-02-27T05:12:13.937Z,37.00
2023-02-27T05:14:51.560Z,37.10
2023-02-27T05:17:27.517Z,37.00
2023-02-27T05:19:56.822Z,37.10
2023-02-27T05:22:35.488Z,37.20
2023-02-27T05:25:13.486Z,37.00
2023-02-27T05:27:48.071Z,37.10
2023-02-27T05:30:23.414Z,37.00
2023-02-27T05:32:58.404Z,36.90
2023-02-27T05:35:33.227Z,36.80
2023-02-27T05:38:08.801Z,36.80
2023-02-27T05:40:42.472Z,36.80
2023-02-27T05:43:17.827Z,36.80
2023-02-27T05:45:52.068Z,36.80
2023-02-27T05:48:27.684Z,36.80
2023-02-27T05:50:59.147Z,36.70
2023-02-27T05:53:35.090Z,36.80
2023-02-27T05:56:06.598Z,36.70
2023-02-27T05:58:40.347Z,36.80
2023-02-27T06:01:11.743Z,37.40
2023-02-27T06:03:43.115Z,36.70
2023-02-27T06:06:16.591Z,36.70
2023-02-27T06:08:45.867Z,36.70
2023-02-27T06:11:14.875Z,36.80
2023-02-27T06:13:43.534Z,36.80
2023-02-27T06:16:14.761Z,36.80
2023-02-27T06:18:44.898Z,36.80
2023-02-27T06:21:14.778Z,36.80
2023-02-27T06:23:43.531Z,36.80
2023-02-27T06:26:14.314Z,36.70
2023-02-27T06:28:43.479Z,36.70
2023-02-27T06:31:12.170Z,36.80
2023-02-27T06:33:40.868Z,36.70
2023-02-27T06:36:10.900Z,36.70
2023-02-27T06:38:39.580Z,36.70
2023-02-27T06:41:08.307Z,36.80
2023-02-27T06:43:37.224Z,36.80
2023-02-27T06:46:06.481Z,36.80
2023-02-27T06:48:35.146Z,36.80
2023-02-27T06:51:03.794Z,36.80
2023-02-27T06:53:33.814Z,36.70
2023-02-27T06:56:02.468Z,36.60
2023-02-27T06:58:31.054Z,36.60
2023-02-27T07:01:01.025Z,36.60
2023-02-27T07:03:29.665Z,36.50
2023-02-27T07:05:59.167Z,36.60
2023-02-27T07:08:27.914Z,36.80
2023-02-27T07:10:58.030Z,36.80
2023-02-27T07:13:26.692Z,36.70
2023-02-27T07:15:55.582Z,36.80
2023-02-27T07:18:24.960Z,36.80
2023-02-27T07:20:55.646Z,36.80
2023-02-27T07:23:25.002Z,36.90
2023-02-27T07:25:53.726Z,36.80
2023-02-27T07:28:23.980Z,36.90
2023-02-27T07:30:55.824Z,36.80
2023-02-27T07:33:25.742Z,36.80
2023-02-27T07:35:55.453Z,36.90
2023-02-27T07:38:24.190Z,36.80
2023-02-27T07:40:54.897Z,36.90
2023-02-27T07:43:25.168Z,36.90
2023-02-27T07:45:53.916Z,36.90
2023-02-27T07:48:22.658Z,37.00
2023-02-27T07:50:51.522Z,37.00
2023-02-27T07:53:20.182Z,37.00
2023-02-27T07:55:50.046Z,37.10
2023-02-27T07:58:18.830Z,37.10
2023-02-27T08:00:49.121Z,37.00
2023-02-27T08:03:20.729Z,37.10
2023-02-27T08:05:49.946Z,37.20
2023-02-27T08:08:18.670Z,37.10
2023-02-27T08:10:51.092Z,37.20
2023-02-27T08:13:25.185Z,37.10
2023-02-27T08:16:07.144Z,37.00
2023-02-27T08:18:35.841Z,37.00
2023-02-27T08:21:07.816Z,37.10
2023-02-27T08:23:36.586Z,37.10
2023-02-27T08:26:05.656Z,37.10
2023-02-27T08:28:35.361Z,37.20
2023-02-27T08:31:07.003Z,37.20
2023-02-27T08:33:35.983Z,37.10
2023-02-27T08:36:05.205Z,37.00
2023-02-27T08:38:34.011Z,37.00
2023-02-27T08:41:02.712Z,36.90
2023-02-27T08:43:31.553Z,37.00
2023-02-27T08:46:03.209Z,37.70
2023-02-27T08:48:35.167Z,36.90
2023-02-27T08:51:04.964Z,36.80
2023-02-27T08:53:33.597Z,36.80
2023-02-27T08:56:02.325Z,36.90
2023-02-27T08:58:35.871Z,36.80
2023-02-27T09:01:04.814Z,36.80
2023-02-27T09:03:35.005Z,36.80
2023-02-27T09:06:03.749Z,36.50
2023-02-27T09:08:32.637Z,36.70
2023-02-27T09:11:01.695Z,36.80
2023-02-27T09:13:34.060Z,36.80
2023-02-27T09:16:02.733Z,36.70
2023-02-27T09:18:34.146Z,36.60
2023-02-27T09:21:07.187Z,36.50
2023-02-27T09:23:35.934Z,36.30
2023-02-27T09:26:05.423Z,36.40
2023-02-27T09:28:35.976Z,36.50
2023-02-27T09:31:06.701Z,36.50
2023-02-27T09:33:37.254Z,36.60
2023-02-27T09:36:09.443Z,36.70
2023-02-27T09:38:41.220Z,36.50
2023-02-27T09:41:34.115Z,36.70
2023-02-27T09:44:02.931Z,36.20
2023-02-27T09:46:32.049Z,36.80
2023-02-27T09:49:04.842Z,36.80
2023-02-27T09:51:34.924Z,36.80
2023-02-27T09:54:04.103Z,36.80
2023-02-27T09:56:37.427Z,36.90
2023-02-27T09:59:16.642Z,36.90
2023-02-27T10:01:50.431Z,36.90
2023-02-27T10:04:35.403Z,36.90
2023-02-27T10:07:16.468Z,36.90
2023-02-27T10:10:01.363Z,36.80
2023-02-27T10:12:51.337Z,36.50
2023-02-27T10:15:27.332Z,36.10
2023-02-27T10:18:09.519Z,36.10
2023-02-27T10:20:54.763Z,36.10
2023-02-27T10:23:36.544Z,35.90
2023-02-27T10:26:06.319Z,35.50
2023-02-27T10:28:35.329Z,35.80
2023-02-27T10:31:04.220Z,35.80
2023-02-27T10:33:37.531Z,35.50
2023-02-27T10:36:20.652Z,35.00
2023-02-27T10:39:07.544Z,35.40
2023-02-27T10:41:37.450Z,35.20
2023-02-27T10:44:06.953Z,35.50
2023-02-27T10:46:41.344Z,35.40
2023-02-27T10:49:19.168Z,35.30
2023-02-27T10:52:06.100Z,35.20
2023-02-27T10:54:37.182Z,35.60
2023-02-27T10:57:20.728Z,35.60
2023-02-27T10:59:55.926Z,35.70
2023-02-27T11:02:28.319Z,35.70
2023-02-27T11:04:59.623Z,35.60
2023-02-27T11:07:37.297Z,35.60
2023-02-27T11:10:21.681Z,35.60
2023-02-27T11:13:21.547Z,35.00
2023-02-27T11:16:09.582Z,35.10
2023-02-27T11:18:40.723Z,35.10
2023-02-27T11:21:22.777Z,35.40
2023-02-27T11:24:01.394Z,35.20
2023-02-27T11:26:34.686Z,35.40
2023-02-27T11:29:24.198Z,35.70
2023-02-27T11:31:56.406Z,35.50
2023-02-27T11:34:34.122Z,35.80
2023-02-27T11:37:06.725Z,35.60
2023-02-27T11:39:39.313Z,35.90
2023-02-27T11:42:30.311Z,35.90
2023-02-27T11:45:02.934Z,35.50
2023-02-27T11:47:36.003Z,35.80
2023-02-27T11:50:53.710Z,35.90
2023-02-27T11:54:05.295Z,35.50
2023-02-27T11:56:37.831Z,35.60
2023-02-27T11:59:25.011Z,35.70
2023-02-27T12:02:01.190Z,35.60
2023-02-27T12:04:43.151Z,35.90
2023-02-27T12:07:20.419Z,35.70
2023-02-27T12:10:00.988Z,35.50
2023-02-27T12:12:36.339Z,35.50
2023-02-27T12:15:19.787Z,35.60
2023-02-27T12:17:53.708Z,35.30
2023-02-27T12:20:37.470Z,35.60
2023-02-27T12:23:18.730Z,35.30
2023-02-27T12:25:52.687Z,35.40
2023-02-27T12:28:47.398Z,35.40
2023-02-27T12:31:52.169Z,34.90
2023-02-27T12:34:29.236Z,35.10
2023-02-27T12:37:04.100Z,35.50
2023-02-27T12:39:36.362Z,35.60
2023-02-27T12:42:50.195Z,35.60
2023-02-27T12:45:56.585Z,35.50
2023-02-27T12:48:44.596Z,35.60
2023-02-27T12:51:32.129Z,35.70
2023-02-27T12:54:21.184Z,35.70
2023-02-27T12:57:03.640Z,35.60
2023-02-27T12:59:54.544Z,35.90
2023-02-27T13:03:00.237Z,35.70
2023-02-27T13:05:46.846Z,35.70
2023-02-27T13:08:59.076Z,35.90
2023-02-27T13:11:44.597Z,35.70
2023-02-27T13:14:34.231Z,35.50
2023-02-27T13:17:06.553Z,35.50
2023-02-27T13:19:41.248Z,35.50
2023-02-27T13:22:24.982Z,35.50
2023-02-27T13:24:56.485Z,35.30
2023-02-27T13:27:29.563Z,35.60
2023-02-27T13:30:15.518Z,35.20
2023-02-27T13:32:51.809Z,35.20
2023-02-27T13:35:32.317Z,35.40
2023-02-27T13:38:05.949Z,35.20
2023-02-27T13:40:38.089Z,35.30
2023-02-27T13:43:31.249Z,35.20
2023-02-27T13:46:01.430Z,35.20
2023-02-27T13:48:48.076Z,35.20
2023-02-27T13:51:59.534Z,34.90
2023-02-27T13:54:36.456Z,35.10
2023-02-27T13:57:21.404Z,35.20
2023-02-27T14:00:09.007Z,35.10
2023-02-27T14:02:59.457Z,34.80
2023-02-27T14:05:36.393Z,35.20
2023-02-27T14:08:15.640Z,35.10
2023-02-27T14:11:00.099Z,35.00
2023-02-27T14:14:29.645Z,35.10
2023-02-27T14:17:03.535Z,35.10
2023-02-27T14:19:57.041Z,35.30
2023-02-27T14:22:40.367Z,34.90
2023-02-27T14:25:24.996Z,35.00
2023-02-27T14:27:58.370Z,34.90
2023-02-27T14:30:33.252Z,35.00
2023-02-27T14:33:14.798Z,34.90
2023-02-27T14:35:48.808Z,35.10
2023-02-27T14:38:21.466Z,34.70
2023-02-27T14:41:11.291Z,34.40
2023-02-27T14:43:45.161Z,34.30
2023-02-27T14:46:24.769Z,34.50
2023-02-27T14:48:58.442Z,34.30
2023-02-27T14:51:30.376Z,34.20
2023-02-27T14:54:06.471Z,34.60
2023-02-27T14:56:36.354Z,34.20
2023-02-27T14:59:22.823Z,34.50
2023-02-27T15:01:52.400Z,33.80
2023-02-27T15:04:24.659Z,34.40
2023-02-27T15:06:55.490Z,34.20
2023-02-27T15:09:29.220Z,34.30
2023-02-27T15:12:03.936Z,34.40
2023-02-27T15:14:37.845Z,34.40
2023-02-27T15:17:17.684Z,34.30
2023-02-27T15:19:52.990Z,34.20
2023-02-27T15:22:38.042Z,34.00
2023-02-27T15:25:23.767Z,34.30
2023-02-27T15:27:52.823Z,34.30
2023-02-27T15:30:23.780Z,34.30
2023-02-27T15:32:54.779Z,33.90
2023-02-27T15:35:27.630Z,34.20
2023-02-27T15:38:00.122Z,34.10
2023-02-27T15:40:31.930Z,34.10
2023-02-27T15:43:02.111Z,34.20
2023-02-27T15:45:35.455Z,34.10
2023-02-27T15:48:05.141Z,34.00
2023-02-27T15:50:38.140Z,34.20
2023-02-27T15:53:13.444Z,34.30
2023-02-27T15:55:45.056Z,34.20
2023-02-27T15:58:25.194Z,34.30
2023-02-27T16:01:01.807Z,33.90
2023-02-27T16:03:37.336Z,33.80
2023-02-27T16:06:12.598Z,34.00
2023-02-27T16:08:47.119Z,33.80
2023-02-27T16:11:21.289Z,33.80
2023-02-27T16:13:50.402Z,33.60
2023-02-27T16:16:31.757Z,33.90
2023-02-27T16:19:03.806Z,33.30
2023-02-27T16:21:33.422Z,33.50
2023-02-27T16:24:20.648Z,33.50
2023-02-27T16:26:53.405Z,33.00
2023-02-27T16:29:25.135Z,33.30
2023-02-27T16:31:58.324Z,33.30
2023-02-27T16:34:44.532Z,33.00
2023-02-27T16:37:21.983Z,33.30
2023-02-27T16:39:53.623Z,33.10
2023-02-27T16:42:22.773Z,33.40
2023-02-27T16:44:51.512Z,33.50
2023-02-27T16:47:22.935Z,33.50
2023-02-27T16:49:51.557Z,33.40
2023-02-27T16:52:22.713Z,33.40
2023-02-27T16:54:51.984Z,33.30
2023-02-27T16:57:24.886Z,33.20
2023-02-27T16:59:53.531Z,33.20
2023-02-27T17:02:23.528Z,33.20
2023-02-27T17:04:52.365Z,33.00
2023-02-27T17:07:21.051Z,33.20
2023-02-27T17:09:50.432Z,33.10
2023-02-27T17:12:19.159Z,33.10
2023-02-27T17:14:47.981Z,33.10
2023-02-27T17:17:16.590Z,33.20
2023-02-27T17:19:46.974Z,33.20
2023-02-27T17:22:15.838Z,33.10
2023-02-27T17:24:44.500Z,33.10
2023-02-27T17:27:13.175Z,33.10
2023-02-27T17:29:41.761Z,33.20
2023-02-27T17:32:10.491Z,33.20
2023-02-27T17:34:39.423Z,33.20
2023-02-27T17:37:09.491Z,33.00
2023-02-27T17:39:39.180Z,32.90
2023-02-27T17:42:07.861Z,33.00
2023-02-27T17:44:36.520Z,33.00
2023-02-27T17:47:05.443Z,33.00
2023-02-27T17:49:34.453Z,33.00
2023-02-27T17:52:03.608Z,33.00
2023-02-27T17:54:34.273Z,33.00
2023-02-27T17:57:04.896Z,32.90
2023-02-27T17:59:34.474Z,33.00
2023-02-27T18:02:03.170Z,33.10
2023-02-27T18:04:31.770Z,33.10
2023-02-27T18:07:00.363Z,33.00
2023-02-27T18:09:28.962Z,33.10
2023-02-27T18:11:59.036Z,33.00
2023-02-27T18:14:27.714Z,33.60
2023-02-27T18:16:56.339Z,33.00
2023-02-27T18:19:25.544Z,33.00
2023-02-27T18:21:54.123Z,32.90
2023-02-27T18:24:22.759Z,32.90
2023-02-27T18:26:51.339Z,33.00
2023-02-27T18:29:21.399Z,32.90
2023-02-27T18:31:51.874Z,32.90
2023-02-27T18:34:21.013Z,32.90
2023-02-27T18:36:49.825Z,32.90
2023-02-27T18:39:18.603Z,32.90
2023-02-27T18:41:47.699Z,32.90
2023-02-27T18:44:16.516Z,32.90
2023-02-27T18:46:46.630Z,32.90
2023-02-27T18:49:15.820Z,32.80
2023-02-27T18:51:44.952Z,33.00
2023-02-27T18:54:14.575Z,33.00
2023-02-27T18:56:43.489Z,33.00
2023-02-27T18:59:12.685Z,33.00
2023-02-27T19:01:41.303Z,33.00
2023-02-27T19:04:11.316Z,33.20
2023-02-27T19:06:42.727Z,33.10
2023-02-27T19:09:16.040Z,33.20
2023-02-27T19:11:47.564Z,33.20
2023-02-27T19:14:17.405Z,33.20
2023-02-27T19:16:46.671Z,33.30
2023-02-27T19:19:16.653Z,33.30
2023-02-27T19:21:47.270Z,33.30
2023-02-27T19:24:16.756Z,33.40
2023-02-27T19:26:45.494Z,33.40
2023-02-27T19:29:14.426Z,33.40
2023-02-27T19:31:44.542Z,33.50
2023-02-27T19:34:14.742Z,33.50
2023-02-27T19:36:44.826Z,33.60
2023-02-27T19:39:13.496Z,33.50
2023-02-27T19:41:42.308Z,33.60
2023-02-27T19:44:11.463Z,33.60
2023-02-27T19:46:41.392Z,33.60
2023-02-27T19:49:10.227Z,33.60
2023-02-27T19:51:41.770Z,33.60
2023-02-27T19:54:15.516Z,33.70
2023-02-27T19:56:44.672Z,33.60
2023-02-27T19:59:13.865Z,33.60
2023-02-27T20:01:42.879Z,33.70
2023-02-27T20:04:12.907Z,33.70
2023-02-27T20:06:44.003Z,33.70
2023-02-27T20:09:16.605Z,33.80
2023-02-27T20:11:46.829Z,33.70
2023-02-27T20:14:17.747Z,33.80
2023-02-27T20:16:47.079Z,33.70
2023-02-27T20:19:19.217Z,33.70
2023-02-27T20:21:48.793Z,33.70
2023-02-27T20:24:20.037Z,33.70
2023-02-27T20:26:52.418Z,33.60
2023-02-27T20:29:24.662Z,33.60
2023-02-27T20:31:55.454Z,33.60
2023-02-27T20:34:27.223Z,33.70
2023-02-27T20:36:57.654Z,33.60
2023-02-27T20:39:28.980Z,33.70
2023-02-27T20:41:57.684Z,33.70
2023-02-27T20:44:26.328Z,33.80
2023-02-27T20:46:55.339Z,33.80
2023-02-27T20:49:24.977Z,33.80
2023-02-27T20:51:53.892Z,33.80
2023-02-27T20:54:22.538Z,33.80
2023-02-27T20:56:54.419Z,33.80
2023-02-27T20:59:25.907Z,33.70
2023-02-27T21:01:55.777Z,33.80
2023-02-27T21:04:42.687Z,33.90
2023-02-27T21:07:12.341Z,33.90
2023-02-27T21:09:41.347Z,33.90
2023-02-27T21:12:12.334Z,33.90
2023-02-27T21:14:44.269Z,33.90
2023-02-27T21:17:13.871Z,34.00
2023-02-27T21:19:42.553Z,34.00
2023-02-27T21:22:11.458Z,34.10
2023-02-27T21:24:40.347Z,34.10
2023-02-27T21:27:10.541Z,34.10
2023-02-27T21:29:40.413Z,34.10
2023-02-27T21:32:09.137Z,34.10
2023-02-27T21:34:37.844Z,34.20
2023-02-27T21:37:07.390Z,34.20
2023-02-27T21:39:36.126Z,34.20
2023-02-27T21:42:05.037Z,34.20
2023-02-27T21:44:35.142Z,34.20
2023-02-27T21:47:09.954Z,34.20
2023-02-27T21:49:39.277Z,34.30
2023-02-27T21:52:08.096Z,34.30
2023-02-27T21:54:36.772Z,34.30
2023-02-27T21:57:06.507Z,34.30
2023-02-27T21:59:36.601Z,34.90
2023-02-27T22:02:05.789Z,34.30
2023-02-27T22:04:34.477Z,34.30
2023-02-27T22:07:03.093Z,34.30
2023-02-27T22:09:31.795Z,34.30
2023-02-27T22:12:00.432Z,34.30
2023-02-27T22:14:28.976Z,34.30
2023-02-27T22:16:59.587Z,34.30
2023-02-27T22:19:28.196Z,34.30
2023-02-27T22:21:56.797Z,34.30
2023-02-27T22:24:25.433Z,34.30
2023-02-27T22:26:54.061Z,34.30
2023-02-27T22:29:22.783Z,34.30
2023-02-27T22:31:51.505Z,34.30
2023-02-27T22:34:21.630Z,34.40
2023-02-27T22:36:52.743Z,34.40
2023-02-27T22:39:21.941Z,34.40
2023-02-27T22:41:51.019Z,34.40
2023-02-27T22:44:19.699Z,34.40
2023-02-27T22:46:50.722Z,34.40
2023-02-27T22:49:23.400Z,34.40
2023-02-27T22:51:53.524Z,34.30
2023-02-27T22:54:23.615Z,34.40
2023-02-27T22:56:56.333Z,34.50
2023-02-27T22:59:26.935Z,34.40
2023-02-27T23:01:55.534Z,34.40
2023-02-27T23:04:25.644Z,34.40
2023-02-27T23:06:56.475Z,34.40
2023-02-27T23:09:27.366Z,34.40
2023-02-27T23:11:57.020Z,34.40
2023-02-27T23:14:25.763Z,34.40
2023-02-27T23:16:54.402Z,34.40
2023-02-27T23:19:24.809Z,34.50
2023-02-27T23:21:53.525Z,34.50
2023-02-27T23:24:22.218Z,34.50
2023-02-27T23:26:53.218Z,34.50
2023-02-27T23:29:22.073Z,34.50
2023-02-27T23:31:51.046Z,34.60
2023-02-27T23:34:19.750Z,34.70
2023-02-27T23:36:50.205Z,34.70
2023-02-27T23:39:19.494Z,34.70
2023-02-27T23:41:48.137Z,34.70
2023-02-27T23:44:16.817Z,34.80
2023-02-27T23:46:45.416Z,34.70
2023-02-27T23:49:14.099Z,34.70
2023-02-27T23:51:42.763Z,34.70
2023-02-27T23:54:13.004Z,34.70
2023-02-27T23:56:41.655Z,34.80
2023-02-27T23:59:10.306Z,34.90
